Time;durP1;ratioP1;P1;durP2;ratioP2;P2;SDS_P1;SDS_P2;PMS_P1;PMS_P2;Temp;Humidity;BMP_temperature;BMP_pressure;BME280_temperature;BME280_humidity;BME280_pressure;Samples;Min_cycle;Max_cycle;Signal;HPM_P1;HPM_P2
2022/08/13 00:01:20;;;;;;;11.97;4.93;;;;;;;-141.28;100.00;45607.13;5055569;28;20208;-77
2022/08/13 00:03:49;;;;;;;5.57;4.83;;;;;;;-141.28;100.00;45618.91;5054945;28;20195;-75
2022/08/13 00:06:47;;;;;;;5.47;4.97;;;;;;;-141.28;100.00;45618.91;5055545;28;20652;-74
2022/08/13 00:09:06;;;;;;;5.27;4.77;;;;;;;-141.28;100.00;45593.41;5055222;28;20671;-75
2022/08/13 00:14:22;;;;;;;5.43;4.90;;;;;;;-141.28;100.00;45579.69;5066180;28;20207;-75
2022/08/13 00:16:54;;;;;;;6.50;5.23;;;;;;;-141.28;100.00;45595.38;5074306;28;20280;-75
2022/08/13 00:19:22;;;;;;;5.63;5.00;;;;;;;-141.28;100.00;45575.78;5074471;28;20224;-74
2022/08/13 00:21:50;;;;;;;5.83;4.93;;;;;;;-141.28;100.00;45552.25;5068351;28;20192;-75
2022/08/13 00:24:17;;;;;;;6.70;4.97;;;;;;;-141.28;100.00;45583.63;5060872;28;20200;-75
2022/08/13 00:26:45;;;;;;;5.60;4.83;;;;;;;-141.28;100.00;45571.84;5074498;28;20188;-74
2022/08/13 00:29:12;;;;;;;5.10;4.60;;;;;;;-141.28;100.00;45569.91;5069275;28;20590;-75
2022/08/13 00:31:40;;;;;;;6.03;5.20;;;;;;;-141.28;100.00;45575.78;5054693;28;20193;-76
2022/08/13 00:34:08;;;;;;;7.17;4.90;;;;;;;-141.28;100.00;45583.63;5055024;28;20616;-75
2022/08/13 00:36:36;;;;;;;5.60;5.07;;;;;;;-141.28;100.00;45567.94;5067139;28;20192;-75
2022/08/13 00:39:08;;;;;;;5.90;5.30;;;;;;;-141.28;100.00;45556.16;5073851;28;20219;-73
2022/08/13 00:41:40;;;;;;;6.80;5.53;;;;;;;-141.28;100.00;45544.41;5073929;28;20196;-76
2022/08/13 00:44:12;;;;;;;6.47;5.40;;;;;;;-141.28;100.00;45544.41;5074047;28;20313;-75
2022/08/13 00:46:42;;;;;;;8.33;5.67;;;;;;;-141.28;100.00;45544.41;5073197;28;20196;-74
2022/08/13 00:49:09;;;;;;;7.17;5.50;;;;;;;-141.28;100.00;45540.50;5073417;28;20203;-75
2022/08/13 00:51:38;;;;;;;6.00;5.37;;;;;;;-141.28;100.00;45536.56;5072594;28;20197;-75
2022/08/13 00:54:10;;;;;;;6.67;5.90;;;;;;;-141.28;100.00;45524.81;5073469;28;20200;-75
2022/08/13 00:56:39;;;;;;;6.23;5.63;;;;;;;-141.28;100.00;45532.66;5072980;28;20628;-76
2022/08/13 00:59:12;;;;;;;8.07;6.50;;;;;;;-141.28;100.00;45505.22;5073969;28;20223;-75
2022/08/13 01:01:41;;;;;;;7.47;6.67;;;;;;;-141.28;100.00;45469.94;5073269;28;20281;-74
2022/08/13 01:04:09;;;;;;;6.33;5.73;;;;;;;-141.28;100.00;45450.34;5073644;28;20203;-75
2022/08/13 01:06:36;;;;;;;9.10;6.37;;;;;;;-141.28;100.00;45415.06;5072606;28;20283;-76
2022/08/13 01:09:10;;;;;;;10.53;7.03;;;;;;;-141.28;100.00;45383.69;5073652;28;20200;-75
2022/08/13 01:11:39;;;;;;;9.87;7.33;;;;;;;-141.28;100.00;45360.19;5049569;28;20223;-75
2022/08/13 01:14:09;;;;;;;8.43;6.70;;;;;;;-141.28;100.00;45352.34;5071967;28;20673;-75
2022/08/13 01:16:37;;;;;;;11.07;7.40;;;;;;;-141.28;100.00;45352.34;5073762;28;20192;-76
2022/08/13 01:19:06;;;;;;;9.63;7.03;;;;;;;-141.28;100.00;45348.41;5071977;28;20314;-74
2022/08/13 01:21:39;;;;;;;7.90;6.90;;;;;;;-141.28;100.00;45340.59;5066114;28;20280;-76
2022/08/13 01:24:10;;;;;;;10.37;7.67;;;;;;;-141.28;100.00;45309.22;5066947;28;20203;-75
2022/08/13 01:26:37;;;;;;;11.10;7.43;;;;;;;-141.28;100.00;45295.50;5048694;28;20220;-74
2022/08/13 01:29:07;;;;;;;10.03;7.50;;;;;;;-141.28;100.00;45281.78;5073513;28;20211;-74
2022/08/13 01:31:36;;;;;;;10.10;7.80;;;;;;;-141.28;100.00;45271.97;5060639;28;20307;-76
2022/08/13 01:34:04;;;;;;;9.53;7.57;;;;;;;-141.28;100.00;45301.38;5053414;28;20200;-77
2022/08/13 01:36:33;;;;;;;9.87;7.20;;;;;;;-141.28;100.00;45320.97;5068268;28;20196;-75
2022/08/13 01:39:04;;;;;;;9.67;6.50;;;;;;;-141.28;100.00;45352.34;5073486;28;20224;-75
2022/08/13 01:41:32;;;;;;;7.40;6.53;;;;;;;-141.28;100.00;45383.69;5072790;28;20232;-75
2022/08/13 01:44:04;;;;;;;8.00;6.27;;;;;;;-141.28;100.00;45430.72;5064272;28;20237;-75
2022/08/13 01:50:28;;;;;;;7.73;6.10;;;;;;;-141.28;100.00;45469.94;5052751;28;20201;-74
2022/08/13 01:52:09;;;;;;;7.83;5.60;;;;;;;-141.28;100.00;45520.91;5051351;28;20257;-75
2022/08/13 01:54:39;;;;;;;7.07;5.77;;;;;;;-141.28;100.00;45560.09;5072686;28;20205;-76
2022/08/13 01:57:08;;;;;;;7.13;5.40;;;;;;;-141.28;100.00;45589.50;5073035;28;20200;-75
2022/08/13 01:59:37;;;;;;;5.70;5.20;;;;;;;-141.28;100.00;45607.13;5072863;28;20219;-77
2022/08/13 02:02:05;;;;;;;7.47;5.60;;;;;;;-141.28;100.00;45626.72;5074482;28;20215;-75
2022/08/13 02:04:35;;;;;;;6.77;5.23;;;;;;;-141.28;100.00;45626.72;5073058;28;20200;-74
2022/08/13 02:07:04;;;;;;;7.87;5.77;;;;;;;-141.28;100.00;45618.91;5072159;28;20213;-75
2022/08/13 02:09:32;;;;;;;9.90;5.90;;;;;;;-141.28;100.00;45614.97;5071673;28;20203;-76
2022/08/13 02:12:01;;;;;;;6.60;6.00;;;;;;;-141.28;100.00;45611.06;5063146;28;20196;-75
2022/08/13 02:14:29;;;;;;;6.63;5.67;;;;;;;-141.28;100.00;45614.97;5072100;28;20199;-75
2022/08/13 02:16:58;;;;;;;8.00;5.43;;;;;;;-141.28;100.00;45603.22;5072487;28;20211;-74
2022/08/13 02:19:25;;;;;;;9.23;5.47;;;;;;;-141.28;100.00;45589.50;5071833;28;20223;-74
2022/08/13 02:21:52;;;;;;;5.87;5.27;;;;;;;-141.28;100.00;45595.38;5062097;28;20197;-77
2022/08/13 02:24:19;;;;;;;7.70;5.50;;;;;;;-141.28;100.00;45611.06;5067333;28;20204;-74
2022/08/13 02:26:46;;;;;;;6.13;5.53;;;;;;;-141.28;100.00;45622.81;5074265;28;20200;-74
2022/08/13 02:29:18;;;;;;;7.20;5.90;;;;;;;-141.28;100.00;45622.81;5058611;28;20713;-74
2022/08/13 02:31:45;;;;;;;6.17;5.20;;;;;;;-141.28;100.00;45638.50;5059338;28;20196;-76
2022/08/13 02:34:12;;;;;;;5.93;5.33;;;;;;;-141.28;100.00;45648.28;5071679;28;20291;-75
2022/08/13 02:36:41;;;;;;;5.77;5.00;;;;;;;-141.28;100.00;45660.06;5072266;28;20196;-74
2022/08/13 02:39:10;;;;;;;7.53;5.50;;;;;;;-141.28;100.00;45665.94;5071209;28;20219;-73
2022/08/13 02:41:42;;;;;;;6.20;5.43;;;;;;;-141.28;100.00;45646.34;5071791;28;20254;-75
2022/08/13 02:44:13;;;;;;;7.73;5.20;;;;;;;-141.28;100.00;45705.13;5070522;28;20231;-75
2022/08/13 02:46:43;;;;;;;6.13;5.53;;;;;;;-141.28;100.00;45662.00;5072121;28;20192;-75
2022/08/13 02:49:12;;;;;;;7.33;5.33;;;;;;;-141.28;100.00;45732.56;5069994;28;20236;-74
2022/08/13 02:51:42;;;;;;;14.33;5.90;;;;;;;-141.28;100.00;45660.06;5071627;28;20536;-77
2022/08/13 02:54:10;;;;;;;9.27;5.63;;;;;;;-141.28;100.00;45660.06;5070629;28;20196;-74
2022/08/13 02:56:38;;;;;;;7.53;5.97;;;;;;;-141.28;100.00;45662.00;5071247;28;20223;-74
2022/08/13 02:59:06;;;;;;;5.40;4.90;;;;;;;-141.28;100.00;45646.34;5070030;28;20269;-75
2022/08/13 03:01:34;;;;;;;6.10;5.50;;;;;;;-141.28;100.00;45634.56;5071191;28;20196;-75
2022/08/13 03:04:03;;;;;;;5.90;5.30;;;;;;;-141.28;100.00;45636.53;5070131;28;20679;-75
2022/08/13 03:06:30;;;;;;;6.10;5.50;;;;;;;-141.28;100.00;45646.34;5071236;28;20253;-73
2022/08/13 03:09:01;;;;;;;5.97;5.40;;;;;;;-141.28;100.00;45658.09;5070072;28;20203;-74
2022/08/13 03:11:29;;;;;;;9.97;5.30;;;;;;;-141.28;100.00;45697.28;5070998;28;20279;-73
2022/08/13 03:14:00;;;;;;;6.27;5.17;;;;;;;-141.28;100.00;45646.34;5063508;28;20228;-75
2022/08/13 03:16:28;;;;;;;10.17;5.87;;;;;;;-141.28;100.00;45650.25;5063997;28;20204;-76
2022/08/13 03:18:58;;;;;;;9.27;6.00;;;;;;;-141.28;100.00;45638.50;5070314;28;20713;-75
2022/08/13 03:21:33;;;;;;;12.43;6.80;;;;;;;-141.28;100.00;45638.50;5064884;28;20193;-75
2022/08/13 03:24:00;;;;;;;6.37;5.77;;;;;;;-141.28;100.00;45609.09;5063747;28;20200;-75
2022/08/13 03:26:27;;;;;;;6.60;6.00;;;;;;;-141.28;100.00;45591.44;5057561;28;20230;-76
2022/08/13 03:28:55;;;;;;;7.37;6.67;;;;;;;-141.28;100.00;45656.13;5070994;28;20196;-75
2022/08/13 03:31:24;;;;;;;8.43;6.67;;;;;;;-141.28;100.00;45532.66;5070437;28;20655;-74
2022/08/13 03:33:53;;;;;;;7.07;6.37;;;;;;;-141.28;100.00;45509.13;5071666;28;20288;-74
2022/08/13 03:36:21;;;;;;;9.77;6.63;;;;;;;-141.28;100.00;45493.47;5045530;28;20610;-75
2022/08/13 03:38:50;;;;;;;11.47;6.87;;;;;;;-141.28;100.00;45458.19;5070816;28;20219;-78
2022/08/13 03:41:18;;;;;;;11.07;7.30;;;;;;;-141.28;100.00;45422.91;5070795;28;20192;-76
2022/08/13 03:43:47;;;;;;;11.07;7.10;;;;;;;-141.28;100.00;45387.63;5070218;28;20227;-74
2022/08/13 03:46:18;;;;;;;13.83;8.03;;;;;;;-141.28;100.00;45348.41;5070888;28;20282;-75
2022/08/13 03:48:47;;;;;;;12.83;8.00;;;;;;;-141.28;100.00;45340.59;5069028;28;20215;-75
2022/08/13 03:51:16;;;;;;;10.87;7.23;;;;;;;-141.28;100.00;45332.75;5070200;28;20249;-75
2022/08/13 03:53:44;;;;;;;14.67;7.77;;;;;;;-141.28;100.00;45324.91;5068838;28;20204;-74
2022/08/13 03:56:15;;;;;;;13.20;8.13;;;;;;;-141.28;100.00;45320.97;5070233;28;20200;-76
2022/08/13 03:58:44;;;;;;;13.40;8.37;;;;;;;-141.28;100.00;45291.59;5069341;28;20783;-74
2022/08/13 04:01:12;;;;;;;8.93;7.50;;;;;;;-141.28;100.00;45266.09;5070130;28;20257;-75
2022/08/13 04:03:41;;;;;;;9.87;8.10;;;;;;;-141.28;100.00;45226.91;5069170;28;20677;-75
2022/08/13 04:06:12;;;;;;;10.67;8.37;;;;;;;-141.28;100.00;45246.50;5070359;28;20204;-74
2022/08/13 04:08:39;;;;;;;14.80;8.97;;;;;;;-141.28;100.00;45226.91;5069828;28;20279;-75
2022/08/13 04:11:09;;;;;;;15.27;8.03;;;;;;;-141.28;100.00;45215.16;5070108;28;20235;-75
2022/08/13 04:13:40;;;;;;;20.50;9.07;;;;;;;-141.28;100.00;45179.88;5058613;28;20667;-74
2022/08/13 04:16:10;;;;;;;9.73;8.00;;;;;;;-141.28;100.00;45228.88;5069966;28;20627;-74
2022/08/13 04:18:37;;;;;;;14.37;8.23;;;;;;;-141.28;100.00;45128.91;5070628;28;20667;-75
2022/08/13 04:21:06;;;;;;;16.83;8.07;;;;;;;-141.28;100.00;45101.47;5067257;28;20212;-76
2022/08/13 04:23:34;;;;;;;13.13;8.13;;;;;;;-141.28;100.00;45097.56;5051156;28;20271;-75
2022/08/13 04:26:02;;;;;;;13.73;8.33;;;;;;;-141.28;100.00;45164.19;5066007;28;20321;-74
2022/08/13 04:28:29;;;;;;;13.03;7.50;;;;;;;-141.28;100.00;45085.81;5074533;28;20193;-74
2022/08/13 04:31:00;;;;;;;10.00;7.40;;;;;;;-141.28;100.00;45087.75;5070611;28;20229;-77
2022/08/13 04:33:28;;;;;;;10.13;8.07;;;;;;;-141.28;100.00;45103.44;5069453;28;20255;-75
2022/08/13 04:35:56;;;;;;;10.60;7.70;;;;;;;-141.28;100.00;45077.97;5069964;28;20609;-74
2022/08/13 04:38:23;;;;;;;12.97;7.80;;;;;;;-141.28;100.00;45066.22;5069989;28;20208;-75
2022/08/13 04:40:51;;;;;;;10.43;8.43;;;;;;;-141.28;100.00;45070.13;5068773;28;20579;-75
2022/08/13 04:43:19;;;;;;;9.70;8.20;;;;;;;-141.28;100.00;45085.81;5070107;28;20197;-74
2022/08/13 04:45:46;;;;;;;11.60;8.63;;;;;;;-141.28;100.00;45077.97;5072702;28;20221;-76
2022/08/13 04:48:17;;;;;;;12.57;9.07;;;;;;;-141.28;100.00;45025.06;5063962;28;20204;-76
2022/08/13 04:50:46;;;;;;;17.77;10.60;;;;;;;-141.28;100.00;45074.03;5057315;28;20589;-76
2022/08/13 04:53:24;;;;;;;12.60;9.00;;;;;;;-141.28;100.00;45077.97;5073991;28;20230;-75
2022/08/13 04:55:53;;;;;;;11.63;8.77;;;;;;;-141.28;100.00;45103.44;5073110;28;20196;-75
2022/08/13 04:58:23;;;;;;;11.57;8.90;;;;;;;-141.28;100.00;45128.91;5073947;28;20211;-74
2022/08/13 05:00:51;;;;;;;10.03;8.57;;;;;;;-141.28;100.00;45125.00;5073029;28;20601;-74
2022/08/13 05:03:21;;;;;;;10.03;7.93;;;;;;;-141.28;100.00;45136.75;5064798;28;20250;-76
2022/08/13 05:05:51;;;;;;;15.70;8.27;;;;;;;-141.28;100.00;45138.72;5056640;28;20619;-75
2022/08/13 05:08:19;;;;;;;10.47;8.87;;;;;;;-141.28;100.00;45172.03;5063126;28;20655;-75
2022/08/13 05:10:48;;;;;;;12.37;8.50;;;;;;;-141.28;100.00;45226.91;5071485;28;20275;-74
2022/08/13 05:13:24;;;;;;;9.77;8.67;;;;;;;-141.28;100.00;45238.66;5074110;28;20207;-77
2022/08/13 05:15:58;;;;;;;10.77;8.03;;;;;;;-141.28;100.00;45248.47;5060695;28;20227;-74
2022/08/13 05:18:30;;;;;;;11.27;8.20;;;;;;;-141.28;100.00;45242.59;5049484;28;20201;-74
2022/08/13 05:20:59;;;;;;;16.90;9.03;;;;;;;-141.28;100.00;45242.59;5064506;28;20298;-75
2022/08/13 05:23:27;;;;;;;14.57;9.43;;;;;;;-141.28;100.00;45248.47;5061665;28;20669;-75
2022/08/13 05:25:55;;;;;;;13.70;8.50;;;;;;;-141.28;100.00;45266.09;5059387;28;20201;-75
2022/08/13 05:28:22;;;;;;;10.43;8.23;;;;;;;-141.28;100.00;45254.34;5057961;28;20188;-75
2022/08/13 05:30:51;;;;;;;13.20;8.80;;;;;;;-141.28;100.00;45250.44;5073783;28;20216;-74
2022/08/13 05:33:21;;;;;;;14.07;8.83;;;;;;;-141.28;100.00;45230.81;5062826;28;20208;-75
2022/08/13 05:35:52;;;;;;;15.20;8.87;;;;;;;-141.28;100.00;45230.81;5071208;28;20235;-75
2022/08/13 05:38:22;;;;;;;15.30;8.60;;;;;;;-141.28;100.00;45240.63;5079173;28;20305;-75
2022/08/13 05:40:49;;;;;;;14.00;8.33;;;;;;;-141.28;100.00;45283.75;5070992;28;20225;-74
2022/08/13 05:43:19;;;;;;;16.77;8.33;;;;;;;-141.28;100.00;45246.50;5064431;28;20615;-77
2022/08/13 05:45:49;;;;;;;19.40;9.37;;;;;;;-141.28;100.00;45273.94;5071494;28;20192;-76
2022/08/13 05:48:18;;;;;;;17.97;9.43;;;;;;;-141.28;100.00;45281.78;5072252;28;20205;-76
2022/08/13 05:50:47;;;;;;;15.73;8.57;;;;;;;-141.28;100.00;45313.13;5071144;28;20654;-77
2022/08/13 05:53:17;;;;;;;10.73;8.80;;;;;;;-141.28;100.00;45315.09;5071916;28;20204;-77
2022/08/13 05:55:44;;;;;;;12.90;8.87;;;;;;;-141.28;100.00;45289.63;5065381;28;20200;-78
2022/08/13 05:58:13;;;;;;;13.20;9.17;;;;;;;-141.28;100.00;45223.00;5066154;28;20270;-76
2022/08/13 06:03:28;;;;;;;16.07;9.70;;;;;;;-141.28;100.00;45111.28;5073012;28;20337;-75
2022/08/13 06:05:59;;;;;;;11.33;9.50;;;;;;;-141.28;100.00;44956.47;5072917;28;20231;-75
2022/08/13 06:08:35;;;;;;;11.07;8.57;;;;;;;-141.28;100.00;44897.69;5065677;28;20667;-75
2022/08/13 06:11:05;;;;;;;14.43;8.90;;;;;;;-141.28;100.00;44862.41;5053329;28;20196;-76
2022/08/13 06:13:33;;;;;;;12.07;9.23;;;;;;;-141.28;100.00;44907.47;5058781;28;20188;-74
2022/08/13 06:16:03;;;;;;;18.20;9.53;;;;;;;-141.28;100.00;44979.97;5061263;28;20568;-75
2022/08/13 06:18:32;;;;;;;14.60;9.93;;;;;;;-141.28;100.00;45023.09;5058664;28;20201;-76
2022/08/13 06:21:04;;;;;;;13.57;10.10;;;;;;;-141.28;100.00;45054.44;5058340;28;20331;-75
2022/08/13 06:23:35;;;;;;;14.63;9.50;;;;;;;-141.28;100.00;45034.84;5049202;28;20196;-75
2022/08/13 06:26:04;;;;;;;13.33;10.10;;;;;;;-141.28;100.00;45003.50;5056868;28;20197;-75
2022/08/13 06:28:33;;;;;;;12.80;11.20;;;;;;;-141.28;100.00;45027.00;5052633;28;20197;-75
2022/08/13 06:31:02;;;;;;;16.93;11.63;;;;;;;-141.28;100.00;45042.69;5068380;28;20217;-74
2022/08/13 06:33:32;;;;;;;13.53;11.60;;;;;;;-141.28;100.00;44983.91;5070727;28;20212;-74
2022/08/13 06:36:00;;;;;;;12.60;11.23;;;;;;;-141.28;100.00;44901.59;5039851;28;20197;-75
2022/08/13 06:38:30;;;;;;;13.90;10.50;;;;;;;-141.28;100.00;44815.38;5072404;28;20196;-76
2022/08/13 06:41:01;;;;;;;12.67;10.73;;;;;;;-141.28;100.00;44787.94;5071043;28;20307;-75
2022/08/13 06:43:29;;;;;;;13.93;10.53;;;;;;;-141.28;100.00;44858.47;5072434;28;20200;-75
2022/08/13 06:45:59;;;;;;;13.03;9.50;;;;;;;-141.28;100.00;44976.06;5067137;28;20196;-76
2022/08/13 06:48:28;;;;;;;16.90;10.77;;;;;;;-141.28;100.00;45109.31;5064471;28;20207;-77
2022/08/13 06:50:55;;;;;;;16.87;10.53;;;;;;;-141.28;100.00;45121.09;5072468;28;20200;-75
2022/08/13 06:53:23;;;;;;;15.37;9.97;;;;;;;-141.28;100.00;45105.41;5056664;28;20208;-74
2022/08/13 06:55:55;;;;;;;12.43;9.77;;;;;;;-141.28;100.00;45132.84;5052130;28;20656;-75
2022/08/13 06:58:28;;;;;;;16.00;11.13;;;;;;;-141.28;100.00;45089.72;5067697;28;20678;-75
2022/08/13 07:00:55;;;;;;;17.07;10.77;;;;;;;-141.28;100.00;45085.81;5052362;28;20659;-76
2022/08/13 07:03:27;;;;;;;18.10;10.80;;;;;;;-141.28;100.00;45085.81;5064821;28;20211;-75
2022/08/13 07:05:56;;;;;;;32.60;12.40;;;;;;;-141.28;100.00;45093.66;5062271;28;20208;-77
2022/08/13 07:08:25;;;;;;;21.40;16.00;;;;;;;-141.28;100.00;45148.50;5054133;28;20193;-76
2022/08/13 07:11:21;;;;;;;25.77;18.00;;;;;;;-141.28;100.00;45175.94;5052777;28;20348;-74
2022/08/13 07:13:43;;;;;;;23.10;17.00;;;;;;;-141.28;100.00;45244.53;5040914;28;20200;-75
2022/08/13 07:16:12;;;;;;;19.03;16.43;;;;;;;-141.28;100.00;45230.81;5071788;28;20218;-76
2022/08/13 07:18:40;;;;;;;23.73;15.23;;;;;;;-141.28;100.00;45258.25;5056214;28;20694;-75
2022/08/13 07:21:10;;;;;;;21.50;14.73;;;;;;;-141.28;100.00;45332.75;5051114;28;20234;-75
2022/08/13 07:23:38;;;;;;;16.37;13.97;;;;;;;-141.28;100.00;45322.94;5061699;28;20192;-75
2022/08/13 07:26:06;;;;;;;22.07;13.57;;;;;;;-141.28;100.00;45297.47;5056305;28;20675;-76
2022/08/13 07:28:34;;;;;;;19.87;12.73;;;;;;;-141.28;100.00;45301.38;5052178;28;20193;-76
2022/08/13 07:31:05;;;;;;;18.23;13.07;;;;;;;-141.28;100.00;45289.63;5061303;28;20215;-76
2022/08/13 07:33:35;;;;;;;19.20;13.07;;;;;;;-141.28;100.00;45334.69;5071193;28;20574;-75
2022/08/13 07:36:05;;;;;;;16.37;12.00;;;;;;;-141.28;100.00;45430.72;5071064;28;20655;-77
2022/08/13 07:38:34;;;;;;;20.50;12.50;;;;;;;-141.28;100.00;45509.13;5055151;28;20196;-76
2022/08/13 07:41:03;;;;;;;18.40;12.13;;;;;;;-141.28;100.00;45481.69;5051637;28;20241;-75
2022/08/13 07:43:32;;;;;;;17.13;12.43;;;;;;;-141.28;100.00;45513.06;5051699;28;20188;-77
2022/08/13 07:46:07;;;;;;;13.77;12.00;;;;;;;-141.28;100.00;45554.22;5052209;28;20197;-75
2022/08/13 07:48:37;;;;;;;16.90;10.67;;;;;;;-141.28;100.00;45591.44;5051548;28;20192;-75
2022/08/13 07:51:07;;;;;;;12.27;10.70;;;;;;;-141.28;100.00;45587.53;5051617;28;20201;-76
2022/08/13 07:53:35;;;;;;;10.67;9.20;;;;;;;-141.28;100.00;45662.00;5051200;28;20197;-75
2022/08/13 07:56:06;;;;;;;15.20;9.70;;;;;;;-141.28;100.00;45646.34;5051708;28;20675;-76
2022/08/13 07:58:36;;;;;;;13.10;9.63;;;;;;;-141.28;100.00;45656.13;5039550;28;20201;-75
2022/08/13 08:01:08;;;;;;;12.47;9.23;;;;;;;-141.28;100.00;45650.25;5051681;28;20220;-76
2022/08/13 08:03:40;;;;;;;13.23;8.83;;;;;;;-141.28;100.00;45632.63;5051248;28;20220;-75
2022/08/13 08:06:09;;;;;;;10.20;8.33;;;;;;;-141.28;100.00;45644.38;5067343;28;20188;-76
2022/08/13 08:08:39;;;;;;;14.20;8.30;;;;;;;-141.28;100.00;45667.91;5070893;28;20674;-74
2022/08/13 08:11:08;;;;;;;11.77;8.17;;;;;;;-141.28;100.00;45650.25;5070647;28;20196;-74
2022/08/13 08:13:35;;;;;;;11.93;8.33;;;;;;;-141.28;100.00;45667.91;5071385;28;20208;-74
2022/08/13 08:16:06;;;;;;;11.30;7.23;;;;;;;-141.28;100.00;45638.50;5069979;28;20547;-75
2022/08/13 08:18:35;;;;;;;11.77;7.33;;;;;;;-141.28;100.00;45665.94;5071229;28;20196;-76
2022/08/13 08:21:05;;;;;;;9.03;6.90;;;;;;;-141.28;100.00;45646.34;5069452;28;20311;-77
2022/08/13 08:23:35;;;;;;;12.23;7.33;;;;;;;-141.28;100.00;45658.09;5046170;28;20205;-74
2022/08/13 08:26:06;;;;;;;8.73;7.00;;;;;;;-141.28;100.00;45634.56;5066143;28;20231;-76
2022/08/13 08:28:35;;;;;;;14.73;7.60;;;;;;;-141.28;100.00;45658.09;5074378;28;20204;-75
2022/08/13 08:31:06;;;;;;;9.00;6.63;;;;;;;-141.28;100.00;45673.78;5074070;28;20273;-76
2022/08/13 08:33:35;;;;;;;10.43;6.80;;;;;;;-141.28;100.00;45660.06;5072529;28;20620;-75
2022/08/13 08:36:05;;;;;;;7.53;6.60;;;;;;;-141.28;100.00;45693.38;5058083;28;20553;-76
2022/08/13 08:44:23;;;;;;;8.13;6.77;;;;;;;-141.28;100.00;45638.50;5064557;28;20701;-76
2022/08/13 08:46:58;;;;;;;8.70;6.30;;;;;;;-141.28;100.00;45646.34;5069683;28;20639;-74
2022/08/13 08:49:28;;;;;;;10.07;6.73;;;;;;;-141.28;100.00;45650.25;5064095;28;20207;-77
2022/08/13 08:51:57;;;;;;;10.13;6.87;;;;;;;-141.28;100.00;45654.19;5074261;28;20208;-77
2022/08/13 08:54:26;;;;;;;8.57;6.80;;;;;;;-141.28;100.00;45662.00;5074173;28;20599;-76
2022/08/13 08:56:55;;;;;;;9.27;7.07;;;;;;;-141.28;100.00;45673.78;5066991;28;20244;-77
2022/08/13 08:59:25;;;;;;;7.87;7.03;;;;;;;-141.28;100.00;45662.00;5073991;28;20196;-75
2022/08/13 09:01:59;;;;;;;12.07;7.73;;;;;;;-141.28;100.00;45652.22;5073517;28;20224;-76
2022/08/13 09:04:32;;;;;;;15.27;7.30;;;;;;;-141.28;100.00;45650.25;5058829;28;20725;-76
2022/08/13 09:06:59;;;;;;;11.53;7.87;;;;;;;-141.28;100.00;45677.69;5063709;28;20640;-77
2022/08/13 09:09:29;;;;;;;21.20;7.90;;;;;;;-141.28;100.00;45685.53;5073674;28;20196;-76
2022/08/13 09:11:57;;;;;;;12.07;7.93;;;;;;;-141.28;100.00;45689.47;5064142;28;20201;-76
2022/08/13 09:14:27;;;;;;;11.73;7.87;;;;;;;-141.28;100.00;45681.63;5076420;28;20259;-74
2022/08/13 09:16:56;;;;;;;8.93;8.00;;;;;;;-141.28;100.00;45685.53;5066113;28;20643;-76
2022/08/13 09:19:25;;;;;;;9.93;8.90;;;;;;;-141.28;100.00;45685.53;5058005;28;20254;-75
2022/08/13 09:21:53;;;;;;;11.67;8.30;;;;;;;-141.28;100.00;45697.28;5064725;28;20228;-76
2022/08/13 09:24:24;;;;;;;9.87;8.50;;;;;;;-141.28;100.00;45705.13;5053838;28;20197;-76
2022/08/13 09:26:52;;;;;;;9.27;8.33;;;;;;;-141.28;100.00;45697.28;5053761;28;20204;-74
2022/08/13 09:29:20;;;;;;;10.73;8.90;;;;;;;-141.28;100.00;45691.41;5066375;28;20352;-76
2022/08/13 09:31:50;;;;;;;10.83;8.47;;;;;;;-141.28;100.00;45685.53;5052417;28;20211;-76
2022/08/13 09:34:18;;;;;;;10.20;8.40;;;;;;;-141.28;100.00;45685.53;5056248;28;20200;-74
2022/08/13 09:36:57;;;;;;;11.23;8.77;;;;;;;-141.28;100.00;45709.06;5064112;28;20197;-75
2022/08/13 09:39:33;;;;;;;11.13;8.33;;;;;;;-141.28;100.00;45662.00;5065502;28;20200;-74
2022/08/13 09:42:05;;;;;;;11.43;8.30;;;;;;;-141.28;100.00;45654.19;5072394;28;20278;-76
2022/08/13 09:44:32;;;;;;;16.77;8.20;;;;;;;-141.28;100.00;45665.94;5073472;28;20282;-76
2022/08/13 09:47:01;;;;;;;11.60;7.77;;;;;;;-141.28;100.00;45654.19;5072958;28;20643;-77
2022/08/13 09:49:29;;;;;;;10.40;7.67;;;;;;;-141.28;100.00;45642.41;5072318;28;20288;-75
2022/08/13 09:51:58;;;;;;;12.80;7.50;;;;;;;-141.28;100.00;45662.00;5072747;28;20546;-75
2022/08/13 09:54:27;;;;;;;11.47;8.20;;;;;;;-141.28;100.00;45662.00;5059194;28;20207;-75
2022/08/13 09:56:58;;;;;;;19.33;8.03;;;;;;;-141.28;100.00;45650.25;5072581;28;20193;-74
2022/08/13 09:59:25;;;;;;;13.70;8.30;;;;;;;-141.28;100.00;45646.34;5073246;28;20189;-75
2022/08/13 10:01:56;;;;;;;12.27;8.20;;;;;;;-141.28;100.00;45669.84;5059343;28;20715;-75
2022/08/13 10:04:26;;;;;;;8.87;7.90;;;;;;;-141.28;100.00;45669.84;5052959;28;20226;-76
2022/08/13 10:06:56;;;;;;;10.17;8.50;;;;;;;-141.28;100.00;45644.38;5053052;28;20620;-75
2022/08/13 10:09:26;;;;;;;15.57;8.13;;;;;;;-141.28;100.00;45656.13;5052687;28;20208;-75
2022/08/13 10:11:58;;;;;;;9.03;7.70;;;;;;;-141.28;100.00;45642.41;5068395;28;20197;-74
2022/08/13 10:14:26;;;;;;;11.30;8.13;;;;;;;-141.28;100.00;45650.25;5062796;28;20677;-76
2022/08/13 10:16:54;;;;;;;10.97;8.23;;;;;;;-141.28;100.00;45646.34;5066236;28;20204;-77
2022/08/13 10:19:21;;;;;;;12.47;8.20;;;;;;;-141.28;100.00;45630.66;5064278;28;20204;-77
2022/08/13 10:21:48;;;;;;;12.23;8.90;;;;;;;-141.28;100.00;45630.66;5053757;28;20224;-74
2022/08/13 10:24:15;;;;;;;9.17;7.93;;;;;;;-141.28;100.00;45646.34;5052687;28;20197;-76
2022/08/13 10:26:42;;;;;;;9.67;8.10;;;;;;;-141.28;100.00;45634.56;5052804;28;20229;-75
2022/08/13 10:29:13;;;;;;;10.10;8.10;;;;;;;-141.28;100.00;45634.56;5052312;28;20275;-74
2022/08/13 10:31:40;;;;;;;10.90;7.97;;;;;;;-141.28;100.00;45634.56;5052751;28;20205;-78
2022/08/13 10:34:07;;;;;;;8.03;7.33;;;;;;;-141.28;100.00;45634.56;5067091;28;20200;-76
2022/08/13 10:36:37;;;;;;;11.17;7.70;;;;;;;-141.28;100.00;45638.50;5065436;28;20283;-76
2022/08/13 10:39:06;;;;;;;8.93;7.40;;;;;;;-141.28;100.00;45665.94;5070801;28;20200;-76
2022/08/13 10:41:33;;;;;;;10.20;7.57;;;;;;;-141.28;100.00;45626.72;5054329;28;20222;-76
2022/08/13 10:44:00;;;;;;;8.27;7.47;;;;;;;-141.28;100.00;45630.66;5061626;28;20221;-75
2022/08/13 10:46:33;;;;;;;8.90;7.87;;;;;;;-141.28;100.00;45611.06;5052332;28;20244;-76
2022/08/13 10:49:00;;;;;;;11.27;9.23;;;;;;;-141.28;100.00;45618.91;5065426;28;20199;-75
2022/08/13 10:51:29;;;;;;;12.57;8.07;;;;;;;-141.28;100.00;45599.28;5072042;28;20208;-78
2022/08/13 10:54:02;;;;;;;9.17;7.87;;;;;;;-141.28;100.00;45571.84;5071191;28;20207;-75
2022/08/13 10:56:32;;;;;;;9.47;6.87;;;;;;;-141.28;100.00;45587.53;5071648;28;20284;-75
2022/08/13 10:59:01;;;;;;;11.20;7.37;;;;;;;-141.28;100.00;45614.97;5071699;28;20228;-76
2022/08/13 11:01:30;;;;;;;7.77;6.97;;;;;;;-141.28;100.00;45614.97;5072010;28;20231;-75
2022/08/13 11:04:00;;;;;;;9.60;7.30;;;;;;;-141.28;100.00;45626.72;5068291;28;20209;-75
2022/08/13 11:06:28;;;;;;;14.90;7.30;;;;;;;-141.28;100.00;45628.69;5062282;28;20200;-76
2022/08/13 11:08:59;;;;;;;9.80;7.10;;;;;;;-141.28;100.00;45630.66;5070771;28;20196;-77
2022/08/13 11:11:28;;;;;;;9.80;7.20;;;;;;;-141.28;100.00;45622.81;5071637;28;20639;-78
2022/08/13 11:13:57;;;;;;;7.70;6.90;;;;;;;-141.28;100.00;45614.97;5070858;28;20647;-76
2022/08/13 11:19:16;;;;;;;11.27;6.23;;;;;;;-141.28;100.00;45558.13;5048061;28;20257;-75
2022/08/13 11:21:45;;;;;;;10.47;7.03;;;;;;;-141.28;100.00;45583.63;5062652;28;20315;-77
2022/08/13 11:24:14;;;;;;;7.67;6.80;;;;;;;-141.28;100.00;45599.28;5052038;28;20288;-76
2022/08/13 11:26:41;;;;;;;10.83;7.10;;;;;;;-141.28;100.00;45614.97;5052008;28;20196;-76
2022/08/13 11:29:08;;;;;;;7.73;6.10;;;;;;;-141.28;100.00;45642.41;5061125;28;20245;-76
2022/08/13 11:31:35;;;;;;;6.43;5.80;;;;;;;-141.28;100.00;45662.00;5070786;28;20204;-75